Time;durP1;ratioP1;P1;durP2;ratioP2;P2;SDS_P1;SDS_P2;PMS_P1;PMS_P2;Temp;Humidity;BMP_temperature;BMP_pressure;BME280_temperature;BME280_humidity;BME280_pressure;Samples;Min_cycle;Max_cycle;Signal;HPM_P1;HPM_P2
2021/03/03 00:02:18;;;;;;;;;;;;;;;9.74;49.84;102798.13;4951596;28;96682;-80
2021/03/03 00:04:44;;;;;;;38.85;18.13;;;;;;;9.67;49.83;102795.50;4921847;28;96902;-81
2021/03/03 00:07:10;;;;;;;40.88;17.85;;;;;;;10.19;48.85;102791.97;4925990;28;98896;-81
2021/03/03 00:09:36;;;;;;;;;;;;;;;9.98;49.35;102792.84;4938569;28;97717;-79
2021/03/03 00:12:05;;;;;;;41.92;18.00;;;;;;;10.14;49.05;102787.56;4942296;28;96899;-81
2021/03/03 00:14:31;;;;;;;41.05;19.85;;;;;;;9.98;49.16;102786.69;4943747;28;97288;-80
2021/03/03 00:16:57;;;;;;;;;;;;;;;9.69;50.07;102793.75;4941208;28;98997;-81
2021/03/03 00:19:23;;;;;;;37.75;18.02;;;;;;;9.38;50.76;102798.09;4939227;28;98752;-81
2021/03/03 00:21:50;;;;;;;39.50;18.98;;;;;;;9.26;51.03;102795.41;4942530;28;96992;-80
2021/03/03 00:24:17;;;;;;;34.22;17.85;;;;;;;9.48;50.45;102795.47;4946636;28;97487;-81
2021/03/03 00:26:43;;;;;;;36.70;18.35;;;;;;;9.10;51.18;102795.41;4934746;28;99135;-80
2021/03/03 00:29:09;;;;;;;;;;;;;;;9.11;51.63;102794.53;4938915;28;98395;-80
2021/03/03 00:31:35;;;;;;;36.42;17.23;;;;;;;9.24;51.21;102799.81;4942292;28;98351;-80
2021/03/03 00:34:01;;;;;;;40.05;18.15;;;;;;;9.28;50.99;102801.59;4944233;28;97588;-81
2021/03/03 00:36:27;;;;;;;;;;;;;;;9.38;50.40;102788.44;4931527;28;98113;-79
2021/03/03 00:38:53;;;;;;;41.47;17.38;;;;;;;9.31;50.96;102791.94;4927513;28;98910;-79
2021/03/03 00:41:18;;;;;;;38.95;17.10;;;;;;;9.28;50.46;102799.81;4940660;28;96860;-81
2021/03/03 00:43:44;;;;;;;35.63;17.50;;;;;;;9.10;50.77;102798.03;4938283;28;96766;-80
2021/03/03 00:46:11;;;;;;;38.90;18.80;;;;;;;9.09;50.83;102795.38;4936369;28;99391;-79
2021/03/03 00:48:37;;;;;;;41.72;18.20;;;;;;;8.95;51.13;102792.69;4939999;28;97633;-79
2021/03/03 00:51:03;;;;;;;;;;;;;;;9.44;49.98;102790.19;4937629;28;96873;-80
2021/03/03 00:53:29;;;;;;;38.55;17.73;;;;;;;9.08;50.34;102797.13;4927543;28;96802;-79
2021/03/03 00:55:55;;;;;;;;;;;;;;;9.05;50.28;102789.22;4933048;28;98923;-78
2021/03/03 00:58:25;;;;;;;37.60;17.25;;;;;;;9.37;49.57;102791.94;4946106;28;98840;-79
2021/03/03 01:00:51;;;;;;;36.35;17.63;;;;;;;9.36;49.65;102787.53;4942000;28;96876;-78
2021/03/03 01:03:18;;;;;;;;;;;;;;;9.42;49.58;102784.03;4934597;28;96988;-80
2021/03/03 01:05:44;;;;;;;41.83;18.27;;;;;;;9.90;48.44;102776.16;4939638;28;97640;-79
2021/03/03 01:08:11;;;;;;;47.53;18.50;;;;;;;9.83;48.53;102765.59;4949362;28;98837;-78
2021/03/03 01:10:38;;;;;;;38.13;16.88;;;;;;;9.73;48.88;102761.16;4959889;28;96086;-79
2021/03/03 01:13:04;;;;;;;36.75;17.38;;;;;;;9.48;49.50;102762.94;4959306;28;96966;-78
2021/03/03 01:15:30;;;;;;;35.85;18.33;;;;;;;8.90;50.95;102762.81;4941166;28;98076;-79
2021/03/03 01:18:00;;;;;;;34.25;16.70;;;;;;;8.90;51.44;102759.28;4945805;28;98798;-79
2021/03/03 01:20:27;;;;;;;42.25;18.52;;;;;;;8.87;51.29;102754.88;4941068;28;96957;-79
2021/03/03 01:22:53;;;;;;;42.50;18.77;;;;;;;8.76;51.89;102756.59;4942405;28;97625;-81
2021/03/03 01:25:19;;;;;;;42.88;17.17;;;;;;;8.75;51.84;102752.19;4940848;28;98969;-81
2021/03/03 01:27:45;;;;;;;35.67;17.23;;;;;;;8.59;51.63;102756.53;4935305;28;97172;-78
2021/03/03 01:30:13;;;;;;;38.63;18.30;;;;;;;8.68;51.34;102748.66;4933719;28;97165;-79
2021/03/03 01:32:39;;;;;;;37.80;18.08;;;;;;;9.02;50.80;102747.00;4952903;28;97832;-80
2021/03/03 01:35:05;;;;;;;;;;;;;;;9.37;49.99;102743.56;4962039;28;97774;-81
2021/03/03 01:37:31;;;;;;;38.28;18.75;;;;;;;9.30;49.87;102741.81;4955537;28;97834;-78
2021/03/03 01:39:57;;;;;;;40.38;17.90;;;;;;;9.28;49.91;102735.63;4949105;28;96570;-80
2021/03/03 01:42:23;;;;;;;;;;;;;;;9.40;50.04;102740.91;4939505;28;96688;-80
2021/03/03 01:44:49;;;;;;;37.85;17.13;;;;;;;9.29;50.21;102734.75;4920748;28;98539;-80
2021/03/03 01:47:15;;;;;;;34.30;17.40;;;;;;;9.66;49.05;102730.38;4942129;28;97678;-80
2021/03/03 01:49:41;;;;;;;42.65;18.92;;;;;;;9.37;49.73;102727.75;4941642;28;97476;-80
2021/03/03 01:52:09;;;;;;;40.20;19.05;;;;;;;9.30;49.60;102725.97;4942515;28;96790;-80
2021/03/03 01:54:36;;;;;;;37.28;18.73;;;;;;;9.17;50.00;102720.69;4922745;28;102091;-80
2021/03/03 01:57:02;;;;;;;43.85;19.88;;;;;;;9.47;48.99;102718.94;4940001;28;98944;-80
2021/03/03 01:59:29;;;;;;;41.78;19.80;;;;;;;9.23;49.93;102717.16;4921639;28;97633;-79
2021/03/03 02:01:55;;;;;;;47.97;20.13;;;;;;;8.86;50.83;102710.91;4939884;28;97210;-80
2021/03/03 02:04:21;;;;;;;48.70;20.83;;;;;;;8.73;51.32;102706.50;4938344;28;101054;-78
2021/03/03 02:06:56;;;;;;;49.92;22.60;;;;;;;9.17;50.03;102703.97;4937997;28;98843;-79
2021/03/03 02:09:30;;;;;;;49.15;23.05;;;;;;;9.35;49.66;102695.19;4936970;28;96863;-79
2021/03/03 02:12:05;;;;;;;48.92;22.02;;;;;;;9.19;50.65;102699.56;4939714;28;97367;-79
2021/03/03 02:14:33;;;;;;;46.53;20.77;;;;;;;9.17;50.41;102696.06;4932474;28;99000;-78
2021/03/03 02:17:02;;;;;;;48.13;22.33;;;;;;;9.04;50.84;102696.94;4939976;28;98921;-79
2021/03/03 02:19:31;;;;;;;51.58;23.40;;;;;;;9.11;50.38;102696.06;4937103;28;97745;-79
2021/03/03 02:22:05;;;;;;;53.35;24.80;;;;;;;9.41;49.85;102684.63;4928824;28;96928;-79
2021/03/03 02:24:40;;;;;;;61.88;25.38;;;;;;;9.53;49.59;102692.53;4922920;28;98994;-80
2021/03/03 02:27:07;;;;;;;57.90;22.52;;;;;;;9.13;50.59;102687.25;4925430;28;98987;-79
2021/03/03 02:29:33;;;;;;;56.83;24.73;;;;;;;8.95;51.04;102694.25;4935719;28;98799;-80
2021/03/03 02:31:59;;;;;;;57.88;24.45;;;;;;;9.11;50.84;102691.66;4937629;28;96911;-80
2021/03/03 02:34:28;;;;;;;51.63;24.95;;;;;;;8.97;51.12;102682.84;4939678;28;98537;-80
2021/03/03 02:36:55;;;;;;;57.63;24.63;;;;;;;8.95;51.14;102681.97;4933992;28;99228;-81
2021/03/03 02:39:23;;;;;;;54.72;24.92;;;;;;;9.02;51.00;102673.19;4934499;28;98841;-80
2021/03/03 02:41:50;;;;;;;64.13;26.98;;;;;;;9.25;50.78;102675.84;4936191;28;97721;-80
2021/03/03 02:44:17;;;;;;;54.53;26.27;;;;;;;9.10;51.04;102666.16;4940440;28;98975;-81
2021/03/03 02:46:45;;;;;;;56.85;25.98;;;;;;;9.06;51.25;102653.84;4931666;28;98981;-80
2021/03/03 02:49:12;;;;;;;65.65;24.92;;;;;;;8.79;52.56;102648.56;4935364;28;97408;-80
2021/03/03 02:51:38;;;;;;;59.60;25.58;;;;;;;9.00;52.11;102643.28;4936778;28;97430;-78
2021/03/03 02:54:03;;;;;;;;;;;;;;;9.47;50.62;102640.66;4935855;28;98888;-81
2021/03/03 02:56:30;;;;;;;56.22;22.80;;;;;;;9.34;50.33;102635.38;4935310;28;99371;-81
2021/03/03 02:58:58;;;;;;;47.72;22.55;;;;;;;9.42;50.16;102631.00;4934848;28;97796;-79
2021/03/03 03:01:27;;;;;;;50.20;22.52;;;;;;;9.40;50.29;102632.75;4926346;28;97015;-80
2021/03/03 03:03:55;;;;;;;51.92;21.80;;;;;;;9.32;50.41;102618.69;4933367;28;99460;-80
2021/03/03 03:06:23;;;;;;;51.72;22.95;;;;;;;9.13;50.60;102625.72;4936899;28;98921;-79
2021/03/03 03:08:50;;;;;;;46.75;22.60;;;;;;;8.85;51.15;102624.84;4940905;28;99133;-80
2021/03/03 03:11:21;;;;;;;51.13;23.67;;;;;;;8.70;51.38;102624.78;4940667;28;99039;-80
2021/03/03 03:13:49;;;;;;;58.38;23.58;;;;;;;8.56;51.90;102629.16;4933877;28;98932;-80
2021/03/03 03:16:16;;;;;;;51.08;23.95;;;;;;;8.46;52.54;102632.66;4931336;28;99338;-80
2021/03/03 03:18:47;;;;;;;55.53;24.20;;;;;;;8.39;53.14;102623.84;4924748;28;96965;-80
2021/03/03 03:21:15;;;;;;;55.85;25.77;;;;;;;9.05;51.60;102622.22;4934955;28;97383;-80
2021/03/03 03:23:44;;;;;;;54.88;23.83;;;;;;;8.82;51.96;102619.53;4933335;28;98841;-80
2021/03/03 03:26:10;;;;;;;56.60;24.58;;;;;;;8.65;53.51;102614.25;4931604;28;98952;-80
2021/03/03 03:28:38;;;;;;;56.35;25.38;;;;;;;8.99;52.95;102619.56;4936266;28;96875;-82
2021/03/03 03:31:05;;;;;;;53.83;24.20;;;;;;;8.76;52.60;102620.41;4931379;28;96960;-80
2021/03/03 03:33:31;;;;;;;55.60;24.40;;;;;;;8.85;52.47;102619.56;4938195;28;98978;-81
2021/03/03 03:35:58;;;;;;;57.47;24.98;;;;;;;9.05;51.42;102611.66;4948985;28;98837;-81
2021/03/03 03:38:26;;;;;;;60.83;24.75;;;;;;;9.17;51.15;102615.19;4956174;28;97771;-80
2021/03/03 03:40:52;;;;;;;64.43;24.38;;;;;;;8.97;51.87;102611.66;4963316;28;96787;-80
2021/03/03 03:43:19;;;;;;;;;;;;;;;8.78;52.29;102618.66;4953110;28;97738;-80
2021/03/03 03:45:48;;;;;;;55.83;23.57;;;;;;;8.66;52.56;102615.13;4954970;28;97749;-80
2021/03/03 03:48:14;;;;;;;53.38;23.80;;;;;;;8.56;52.52;102618.59;4950865;28;96701;-80
2021/03/03 03:50:41;;;;;;;55.15;25.23;;;;;;;8.27;53.46;102616.72;4940710;28;97937;-80
2021/03/03 03:53:08;;;;;;;54.15;25.08;;;;;;;8.24;53.38;102626.38;4940484;28;98381;-80
2021/03/03 03:55:36;;;;;;;56.05;24.70;;;;;;;8.59;52.72;102608.97;4938621;28;98089;-79
2021/03/03 03:58:03;;;;;;;55.30;24.00;;;;;;;8.79;52.42;102606.38;4937858;28;96675;-80
2021/03/03 04:00:35;;;;;;;50.97;23.65;;;;;;;9.07;51.38;102602.84;4935907;28;96902;-80
2021/03/03 04:03:01;;;;;;;59.55;23.70;;;;;;;8.92;51.47;102613.41;4943311;28;97947;-80
2021/03/03 04:05:28;;;;;;;56.22;24.85;;;;;;;8.88;51.58;102606.38;4941419;28;97745;-81
2021/03/03 04:07:55;;;;;;;48.55;22.25;;;;;;;8.62;52.51;102611.59;4944462;28;96745;-80
2021/03/03 04:10:24;;;;;;;54.40;24.23;;;;;;;8.54;52.62;102605.44;4949361;28;96191;-80
2021/03/03 04:12:50;;;;;;;54.53;23.98;;;;;;;8.53;52.61;102618.63;4950467;28;98043;-78
2021/03/03 04:15:16;;;;;;;;;;;;;;;8.52;52.88;102603.69;4958024;28;97726;-80
2021/03/03 04:17:42;;;;;;;58.92;22.70;;;;;;;8.13;53.76;102613.19;4958557;28;95976;-82
2021/03/03 04:20:10;;;;;;;55.88;23.33;;;;;;;8.39;53.12;102614.19;4942534;28;96765;-80
2021/03/03 04:22:37;;;;;;;53.92;22.55;;;;;;;8.37;52.95;102600.13;4940773;28;98828;-79
2021/03/03 04:25:05;;;;;;;60.97;23.48;;;;;;;8.37;53.02;102608.03;4941281;28;98879;-79
2021/03/03 04:27:31;;;;;;;54.97;23.88;;;;;;;8.33;52.79;102600.13;4937098;28;96765;-80
2021/03/03 04:29:57;;;;;;;56.97;22.75;;;;;;;8.25;53.16;102600.06;4940959;28;96574;-79
2021/03/03 04:32:23;;;;;;;;;;;;;;;8.24;53.25;102595.66;4938954;28;98937;-80
2021/03/03 04:34:49;;;;;;;48.83;21.10;;;;;;;8.32;53.20;102601.88;4939181;28;102015;-80
2021/03/03 04:37:15;;;;;;;46.83;21.23;;;;;;;8.18;53.65;102594.75;4943098;28;96749;-80
2021/03/03 04:39:41;;;;;;;51.33;21.50;;;;;;;8.24;53.51;102590.41;4939738;28;96935;-81
2021/03/03 04:42:07;;;;;;;48.83;23.55;;;;;;;8.56;52.36;102593.16;4926388;28;99112;-80
2021/03/03 04:44:34;;;;;;;;;;;;;;;8.26;53.44;102593.91;4923036;28;99003;-81
2021/03/03 04:47:00;;;;;;;50.47;22.55;;;;;;;8.35;53.22;102586.06;4929301;28;96891;-82
2021/03/03 04:49:26;;;;;;;50.33;22.65;;;;;;;8.34;53.31;102583.41;4938210;28;96918;-82
2021/03/03 04:51:52;;;;;;;54.70;22.30;;;;;;;8.06;53.88;102579.81;4940134;28;99191;-80
2021/03/03 04:54:18;;;;;;;;;;;;;;;8.56;52.87;102573.81;4934984;28;99409;-81
2021/03/03 04:56:44;;;;;;;51.97;21.98;;;;;;;8.56;52.63;102576.44;4946392;28;96939;-80
2021/03/03 04:59:10;;;;;;;51.17;22.88;;;;;;;8.13;54.05;102576.31;4932105;28;96802;-81
2021/03/03 05:01:36;;;;;;;;;;;;;;;8.14;53.94;102582.47;4931054;28;100377;-80
2021/03/03 05:04:03;;;;;;;52.85;23.42;;;;;;;7.71;55.12;102586.63;4943530;28;99270;-82
2021/03/03 05:06:29;;;;;;;48.92;21.73;;;;;;;7.81;54.92;102577.94;4925162;28;96837;-81
2021/03/03 05:08:54;;;;;;;;;;;;;;;8.21;53.93;102579.84;4934570;28;97237;-81
2021/03/03 05:11:22;;;;;;;54.53;22.77;;;;;;;8.15;54.27;102569.28;4932089;28;99221;-80
2021/03/03 05:13:48;;;;;;;54.17;23.02;;;;;;;8.07;54.23;102568.41;4928742;28;99427;-81
2021/03/03 05:16:15;;;;;;;52.60;24.15;;;;;;;8.10;54.32;102563.13;4937788;28;97068;-80
2021/03/03 05:18:42;;;;;;;52.75;24.02;;;;;;;8.23;54.22;102564.94;4948768;28;96837;-81
2021/03/03 05:21:09;;;;;;;58.42;24.85;;;;;;;8.23;54.28;102559.66;4948802;28;98975;-81
2021/03/03 05:23:35;;;;;;;52.58;23.20;;;;;;;8.26;53.99;102558.81;4952214;28;99023;-80
2021/03/03 05:26:03;;;;;;;46.50;21.20;;;;;;;8.13;54.02;102570.16;4944603;28;98311;-81
2021/03/03 05:28:30;;;;;;;52.08;22.83;;;;;;;8.04;54.11;102565.75;4938740;28;96629;-81
2021/03/03 05:30:56;;;;;;;62.47;24.13;;;;;;;8.05;54.09;102551.72;4938790;28;98225;-80
2021/03/03 05:33:24;;;;;;;60.58;24.77;;;;;;;8.26;54.04;102559.69;4945496;28;97694;-80
2021/03/03 05:35:51;;;;;;;57.30;23.42;;;;;;;8.26;53.84;102559.69;4935535;28;97624;-81
2021/03/03 05:38:17;;;;;;;59.38;24.50;;;;;;;7.89;54.76;102563.91;4932808;28;96943;-81
2021/03/03 05:40:44;;;;;;;;;;;;;;;7.92;54.68;102557.81;4944379;28;98920;-81
2021/03/03 05:43:10;;;;;;;53.75;22.55;;;;;;;7.91;54.63;102566.56;4946691;28;99169;-81
2021/03/03 05:45:37;;;;;;;53.13;23.65;;;;;;;8.01;54.32;102566.59;4940320;28;97175;-81
2021/03/03 05:48:05;;;;;;;52.88;23.65;;;;;;;7.84;54.69;102562.16;4948504;28;97137;-80
2021/03/03 05:50:31;;;;;;;57.72;26.05;;;;;;;7.49;55.50;102570.72;4941940;28;99025;-81
2021/03/03 05:52:59;;;;;;;51.00;23.60;;;;;;;7.66;55.40;102572.59;4955869;28;96671;-81
2021/03/03 05:55:25;;;;;;;54.05;24.55;;;;;;;7.67;55.37;102569.97;4954988;28;96614;-81
2021/03/03 05:57:51;;;;;;;52.58;24.55;;;;;;;7.83;55.19;102565.66;4949084;28;96876;-80
2021/03/03 06:00:19;;;;;;;52.58;25.15;;;;;;;7.94;54.72;102570.06;4956874;28;101025;-80
2021/03/03 06:02:46;;;;;;;54.70;23.75;;;;;;;7.90;55.19;102568.31;4950129;28;101127;-79
2021/03/03 06:05:13;;;;;;;48.78;23.77;;;;;;;7.86;55.33;102573.56;4944889;28;97505;-80
2021/03/03 06:07:40;;;;;;;50.17;23.67;;;;;;;7.92;55.07;102570.97;4944481;28;96827;-80
2021/03/03 06:10:09;;;;;;;52.47;24.33;;;;;;;7.83;55.05;102565.66;4950073;28;101115;-79
2021/03/03 06:12:35;;;;;;;47.88;24.17;;;;;;;7.94;54.79;102567.44;4956143;28;99252;-80
2021/03/03 06:15:01;;;;;;;53.72;23.65;;;;;;;7.78;54.92;102568.25;4954600;28;96554;-80
2021/03/03 06:17:28;;;;;;;52.67;24.60;;;;;;;7.79;55.12;102558.63;4956764;28;96856;-79
2021/03/03 06:19:58;;;;;;;52.17;24.45;;;;;;;7.99;54.54;102556.94;4945671;28;97053;-80
2021/03/03 06:22:26;;;;;;;57.17;23.92;;;;;;;7.74;55.03;102566.50;4942357;28;98232;-80
2021/03/03 06:24:54;;;;;;;47.88;23.08;;;;;;;7.78;55.13;102568.25;4945660;28;96689;-78
2021/03/03 06:27:23;;;;;;;51.55;24.30;;;;;;;7.94;54.71;102570.06;4939937;28;97172;-79
2021/03/03 06:30:07;;;;;;;47.83;23.45;;;;;;;8.43;53.60;102558.84;4939454;28;98951;-80
2021/03/03 06:32:52;;;;;;;60.55;25.77;;;;;;;8.25;53.96;102560.56;4930972;28;98034;-80
2021/03/03 06:35:20;;;;;;;53.15;24.50;;;;;;;8.25;53.83;102555.28;4932916;28;97660;-80
2021/03/03 06:37:59;;;;;;;47.90;24.15;;;;;;;8.30;54.15;102547.38;4936640;28;96916;-80
2021/03/03 06:40:25;;;;;;;51.63;24.23;;;;;;;8.48;53.44;102551.84;4930715;28;98931;-81
2021/03/03 06:42:53;;;;;;;53.13;24.33;;;;;;;8.46;53.24;102548.34;4932404;28;99358;-81
2021/03/03 06:45:29;;;;;;;51.40;25.13;;;;;;;8.37;53.49;102547.44;4935258;28;96865;-80
2021/03/03 06:47:56;;;;;;;;;;;;;;;8.32;53.44;102541.28;4931379;28;96804;-79
2021/03/03 06:50:32;;;;;;;58.13;26.13;;;;;;;8.37;53.29;102544.81;4931618;28;97866;-80
2021/03/03 06:52:59;;;;;;;53.78;25.10;;;;;;;8.63;52.71;102538.69;4933735;28;99494;-81
2021/03/03 06:55:43;;;;;;;121.95;57.33;;;;;;;8.88;52.16;102536.94;4932987;28;96872;-81
2021/03/03 06:58:27;;;;;;;55.25;25.80;;;;;;;8.71;52.41;102540.47;4938936;28;96836;-81
2021/03/03 07:00:54;;;;;;;50.75;25.92;;;;;;;9.01;51.85;102539.56;4936612;28;100206;-79
2021/03/03 07:03:25;;;;;;;56.20;25.55;;;;;;;8.79;52.14;102536.06;4925959;28;97986;-80
2021/03/03 07:05:51;;;;;;;53.22;25.83;;;;;;;8.67;52.63;102529.91;4932786;28;96899;-81
2021/03/03 07:08:17;;;;;;;;;;;;;;;9.10;51.56;102522.88;4941310;28;97238;-81
2021/03/03 07:10:45;;;;;;;53.03;25.07;;;;;;;8.67;52.29;102520.25;4940163;28;98770;-81
2021/03/03 07:13:11;;;;;;;58.47;27.75;;;;;;;8.84;52.02;102532.56;4926361;28;98879;-81
2021/03/03 07:15:38;;;;;;;51.53;24.83;;;;;;;8.88;51.86;102535.19;4922967;28;97160;-80
2021/03/03 07:18:04;;;;;;;57.90;26.83;;;;;;;9.22;50.89;102530.75;4936648;28;97036;-81
2021/03/03 07:20:32;;;;;;;52.28;26.17;;;;;;;9.38;50.77;102523.72;4938076;28;98933;-82
2021/03/03 07:22:58;;;;;;;58.42;25.63;;;;;;;9.41;50.51;102521.03;4942680;28;99048;-81
2021/03/03 07:25:24;;;;;;;;;;;;;;;9.82;49.83;102516.50;4924565;28;96934;-81
2021/03/03 07:27:51;;;;;;;50.05;25.67;;;;;;;9.74;49.71;102518.28;4933110;28;97815;-80
2021/03/03 07:30:19;;;;;;;51.08;24.75;;;;;;;9.61;49.89;102516.59;4930706;28;99254;-80
2021/03/03 07:32:47;;;;;;;58.65;27.67;;;;;;;9.77;49.60;102518.31;4946900;28;99077;-82
2021/03/03 07:35:14;;;;;;;56.20;26.45;;;;;;;9.78;49.58;102525.31;4933738;28;98544;-80
2021/03/03 07:37:42;;;;;;;59.90;27.65;;;;;;;9.83;49.46;102523.56;4937720;28;97663;-81
2021/03/03 07:40:10;;;;;;;56.13;27.02;;;;;;;9.97;49.38;102521.72;4928567;28;98856;-82
2021/03/03 07:42:37;;;;;;;56.35;26.38;;;;;;;9.85;49.65;102505.91;4935149;28;99268;-80
2021/03/03 07:45:08;;;;;;;52.80;26.58;;;;;;;10.14;49.20;102510.19;4938394;28;96934;-81
2021/03/03 07:47:36;;;;;;;56.47;27.42;;;;;;;9.96;49.68;102517.34;4946729;28;96608;-81
2021/03/03 07:50:07;;;;;;;57.42;26.60;;;;;;;9.90;49.32;102522.63;4939287;28;98585;-81
2021/03/03 07:52:35;;;;;;;56.60;27.48;;;;;;;10.44;48.05;102517.06;4946405;28;98238;-83
2021/03/03 07:55:04;;;;;;;49.85;26.08;;;;;;;10.59;47.85;102501.97;4947963;28;96771;-83
2021/03/03 07:57:33;;;;;;;53.63;26.73;;;;;;;10.78;47.25;102513.28;4938044;28;97700;-80
2021/03/03 08:00:03;;;;;;;55.80;26.58;;;;;;;11.04;46.79;102497.16;4945022;28;100516;-82
2021/03/03 08:02:42;;;;;;;61.22;27.38;;;;;;;11.06;46.88;102508.63;4944410;28;100730;-82
2021/03/03 08:05:11;;;;;;;58.67;26.88;;;;;;;10.87;47.11;102513.22;4939926;28;97879;-82
2021/03/03 08:07:37;;;;;;;52.40;26.60;;;;;;;11.18;46.29;102508.50;4932685;28;99882;-82
2021/03/03 08:10:27;;;;;;;;;;;;;;;10.90;46.69;102507.00;4947079;28;98473;-84
2021/03/03 08:13:05;;;;;;;58.70;28.10;;;;;;;11.33;45.59;102503.06;4937584;28;98850;-83
2021/03/03 08:15:33;;;;;;;65.18;28.70;;;;;;;11.82;44.88;102497.19;4931676;28;97722;-81
2021/03/03 08:18:21;;;;;;;54.72;27.67;;;;;;;12.37;43.43;102492.00;4932497;28;96861;-82
2021/03/03 08:20:50;;;;;;;56.10;26.77;;;;;;;12.64;43.08;102488.03;4916828;28;99040;-83
2021/03/03 08:23:45;;;;;;;58.72;29.63;;;;;;;12.14;43.85;102494.13;4935474;28;99233;-84
2021/03/03 08:26:31;;;;;;;62.70;29.40;;;;;;;12.02;43.96;102487.22;4941578;28;97241;-81
2021/03/03 08:29:16;;;;;;;62.22;28.90;;;;;;;12.17;43.67;102484.34;4937557;28;97535;-82
2021/03/03 08:31:42;;;;;;;62.97;29.75;;;;;;;12.36;43.60;102477.88;4936779;28;98998;-81
2021/03/03 08:34:10;;;;;;;;;;;;;;;12.43;43.26;102476.00;4934953;28;97748;-81
2021/03/03 08:36:48;;;;;;;56.33;26.17;;;;;;;12.25;43.52;102482.47;4933193;28;96982;-82
2021/03/03 08:39:32;;;;;;;53.95;27.63;;;;;;;12.52;42.95;102480.28;4931522;28;97160;-82
2021/03/03 08:41:59;;;;;;;69.78;29.63;;;;;;;12.27;43.57;102462.09;4942347;28;99653;-83
2021/03/03 08:44:25;;;;;;;62.38;29.40;;;;;;;12.64;42.73;102448.25;4944677;28;100196;-82
2021/03/03 08:46:53;;;;;;;57.67;28.67;;;;;;;12.96;42.30;102460.94;4944158;28;97860;-83
2021/03/03 08:49:29;;;;;;;54.70;28.05;;;;;;;12.90;42.21;102450.44;4944924;28;97392;-81
2021/03/03 08:52:27;;;;;;;58.13;29.13;;;;;;;13.19;41.85;102452.59;4952000;28;100625;-81
2021/03/03 08:54:55;;;;;;;57.85;28.88;;;;;;;13.41;41.47;102457.44;4947744;28;100414;-81
2021/03/03 08:57:43;;;;;;;57.58;29.23;;;;;;;13.67;40.86;102467.53;4954597;28;96228;-81
2021/03/03 09:00:09;;;;;;;62.00;28.90;;;;;;;13.49;40.84;102462.59;4940034;28;96361;-82
2021/03/03 09:02:37;;;;;;;54.45;29.65;;;;;;;13.62;40.54;102464.09;4944070;28;98739;-80
2021/03/03 09:05:12;;;;;;;60.22;28.48;;;;;;;14.09;39.67;102465.72;4954807;28;98369;-81
2021/03/03 09:07:40;;;;;;;61.20;29.33;;;;;;;14.05;39.47;102463.16;4955019;28;96799;-83
2021/03/03 09:10:09;;;;;;;57.20;29.55;;;;;;;14.12;39.53;102454.13;4957528;28;96101;-82
2021/03/03 09:12:39;;;;;;;58.47;29.70;;;;;;;13.95;39.82;102452.75;4945730;28;96720;-82
2021/03/03 09:15:08;;;;;;;60.47;29.45;;;;;;;14.08;39.61;102449.81;4944483;28;102355;-82
2021/03/03 09:17:37;;;;;;;54.53;27.48;;;;;;;14.39;38.73;102440.22;4938696;28;98535;-80
2021/03/03 09:20:07;;;;;;;61.10;29.08;;;;;;;14.44;38.91;102440.97;4946551;28;96830;-83
2021/03/03 09:22:38;;;;;;;60.28;29.88;;;;;;;14.46;38.63;102441.81;4944325;28;97505;-81
2021/03/03 09:25:11;;;;;;;52.75;28.77;;;;;;;14.00;39.61;102434.03;4935368;28;99411;-81
2021/03/03 09:27:38;;;;;;;65.00;30.25;;;;;;;14.45;38.83;102437.41;4940250;28;97325;-80
2021/03/03 09:30:08;;;;;;;59.78;29.40;;;;;;;14.53;38.72;102427.44;4936697;28;96896;-79
2021/03/03 09:32:34;;;;;;;60.35;29.83;;;;;;;14.71;38.22;102429.63;4936305;28;99206;-80
2021/03/03 09:35:03;;;;;;;56.40;29.38;;;;;;;14.60;38.43;102425.50;4923755;28;101139;-79
2021/03/03 09:37:36;;;;;;;55.90;29.90;;;;;;;14.50;38.42;102424.88;4932320;28;99000;-80
2021/03/03 09:40:04;;;;;;;56.78;30.23;;;;;;;14.74;38.28;102434.00;4936775;28;97114;-79
2021/03/03 09:42:39;;;;;;;57.00;28.58;;;;;;;14.75;38.17;102436.66;4938939;28;99372;-80
2021/03/03 09:45:08;;;;;;;50.30;27.98;;;;;;;14.91;37.86;102434.44;4934421;28;98851;-78
2021/03/03 09:47:36;;;;;;;56.03;29.38;;;;;;;15.21;37.29;102424.75;4929629;28;97583;-81
2021/03/03 09:50:05;;;;;;;65.82;30.92;;;;;;;15.14;37.11;102420.50;4937485;28;97474;-81
2021/03/03 09:52:37;;;;;;;57.25;30.85;;;;;;;15.23;37.07;102419.38;4937929;28;97049;-82
2021/03/03 09:55:04;;;;;;;59.25;30.67;;;;;;;15.64;36.58;102415.53;4929863;28;99082;-80
2021/03/03 09:57:30;;;;;;;48.58;26.42;;;;;;;15.32;36.60;102411.97;4939890;28;97131;-82
2021/03/03 09:59:57;;;;;;;;;;;;;;;15.44;36.53;102414.28;4944364;28;97533;-83
2021/03/03 10:02:25;;;;;;;49.15;25.55;;;;;;;15.41;36.57;102416.19;4942257;28;101178;-82
2021/03/03 10:04:52;;;;;;;50.75;26.42;;;;;;;15.57;36.70;102405.97;4940091;28;100467;-81
2021/03/03 10:07:25;;;;;;;50.92;27.55;;;;;;;15.81;36.27;102407.91;4943837;28;96880;-81
2021/03/03 10:09:53;;;;;;;51.33;26.70;;;;;;;15.94;36.48;102403.94;4951071;28;96833;-81
2021/03/03 10:12:21;;;;;;;43.08;24.35;;;;;;;15.73;36.21;102401.94;4954672;28;97859;-82
2021/03/03 10:15:01;;;;;;;45.97;22.50;;;;;;;15.76;35.94;102402.69;4950455;28;98162;-82
2021/03/03 10:17:29;;;;;;;43.95;23.92;;;;;;;15.49;36.79;102399.03;4957257;28;96576;-83
2021/03/03 10:19:56;;;;;;;47.88;24.10;;;;;;;15.61;36.99;102396.97;4943345;28;97038;-82
2021/03/03 10:22:22;;;;;;;47.17;25.75;;;;;;;15.43;37.13;102399.22;4953836;28;97913;-82
2021/03/03 10:24:58;;;;;;;49.83;26.23;;;;;;;15.33;37.42;102397.75;4943742;28;100040;-80
2021/03/03 10:27:28;;;;;;;45.17;25.10;;;;;;;15.58;36.90;102397.94;4941171;28;97294;-80
2021/03/03 10:29:55;;;;;;;47.28;25.67;;;;;;;15.77;36.59;102392.91;4935852;28;99049;-82
2021/03/03 10:32:22;;;;;;;44.47;25.02;;;;;;;15.98;36.29;102386.03;4950856;28;98917;-81
2021/03/03 10:34:49;;;;;;;43.70;24.23;;;;;;;16.04;36.70;102389.38;4938719;28;100789;-81
2021/03/03 10:37:23;;;;;;;43.67;25.25;;;;;;;15.94;36.86;102382.59;4946005;28;97297;-81
2021/03/03 10:39:51;;;;;;;54.00;26.58;;;;;;;15.90;37.18;102387.13;4931158;28;97017;-78
2021/03/03 10:42:21;;;;;;;184.20;33.20;;;;;;;16.03;36.95;102379.63;4923253;28;98060;-78
2021/03/03 10:44:52;;;;;;;64.70;26.63;;;;;;;16.05;36.85;102367.13;4932440;28;99147;-80
2021/03/03 10:47:39;;;;;;;44.63;24.75;;;;;;;16.12;36.56;102378.47;4936283;28;97189;-80
2021/03/03 10:50:09;;;;;;;45.20;25.67;;;;;;;16.35;36.53;102367.88;4931286;28;98810;-80
2021/03/03 10:52:35;;;;;;;49.13;26.35;;;;;;;16.19;36.69;102364.00;4936084;28;99037;-80
2021/03/03 10:55:15;;;;;;;48.05;26.17;;;;;;;16.22;36.79;102361.22;4933679;28;101865;-79
2021/03/03 10:58:06;;;;;;;53.75;26.63;;;;;;;16.13;37.12;102353.53;4938729;28;97712;-80
2021/03/03 11:00:33;;;;;;;46.85;26.08;;;;;;;16.35;36.96;102349.22;4947379;28;96905;-78
2021/03/03 11:03:06;;;;;;;41.08;25.38;;;;;;;16.44;36.66;102356.03;4948955;28;98555;-82
2021/03/03 11:05:32;;;;;;;41.75;25.23;;;;;;;16.53;36.50;102347.72;4937943;28;98939;-81
2021/03/03 11:08:01;;;;;;;43.22;24.70;;;;;;;16.30;36.67;102349.38;4943578;28;97821;-79
2021/03/03 11:10:27;;;;;;;43.25;23.05;;;;;;;16.45;35.90;102344.44;4945103;28;97107;-81
2021/03/03 11:12:52;;;;;;;;;;;;;;;16.58;35.28;102324.41;4938419;28;101030;-81
2021/03/03 11:15:19;;;;;;;43.75;22.48;;;;;;;16.46;35.66;102327.50;4929180;28;101440;-81
2021/03/03 11:17:46;;;;;;;39.08;21.38;;;;;;;16.55;35.59;102319.16;4942956;28;96714;-80
2021/03/03 11:20:13;;;;;;;38.03;20.83;;;;;;;16.75;35.37;102311.34;4951852;28;96833;-80
2021/03/03 11:22:41;;;;;;;43.22;23.10;;;;;;;16.55;35.25;102306.69;4946991;28;99010;-82
2021/03/03 11:25:08;;;;;;;38.33;21.23;;;;;;;16.69;35.44;102303.56;4942605;28;98426;-80
2021/03/03 11:27:34;;;;;;;43.33;23.05;;;;;;;16.82;35.91;102310.19;4947233;28;96786;-81
2021/03/03 11:30:00;;;;;;;41.67;22.60;;;;;;;16.89;35.90;102301.03;4938767;28;96833;-80